sensor_id;sensor_type;location;lat;lon;timestamp;pressure;altitude;pressure_sealevel;temperature
58929;BMP180;44713;53.378;10.022;2023-04-03T00:00:37;103040.00;;;1.00
58929;BMP180;44713;53.378;10.022;2023-04-03T00:03:02;103036.00;;;1.00
58929;BMP180;44713;53.378;10.022;2023-04-03T00:05:28;103040.00;;;0.90
58929;BMP180;44713;53.378;10.022;2023-04-03T00:07:53;103034.00;;;0.90
58929;BMP180;44713;53.378;10.022;2023-04-03T00:10:19;103038.00;;;0.90
58929;BMP180;44713;53.378;10.022;2023-04-03T00:12:44;103044.00;;;0.80
58929;BMP180;44713;53.378;10.022;2023-04-03T00:15:10;103058.00;;;0.90
58929;BMP180;44713;53.378;10.022;2023-04-03T00:17:36;103049.00;;;0.80
58929;BMP180;44713;53.378;10.022;2023-04-03T00:20:02;103054.00;;;0.80
58929;BMP180;44713;53.378;10.022;2023-04-03T00:22:28;103052.00;;;0.80
58929;BMP180;44713;53.378;10.022;2023-04-03T00:24:54;103044.00;;;0.80
58929;BMP180;44713;53.378;10.022;2023-04-03T00:27:20;103045.00;;;0.80
58929;BMP180;44713;53.378;10.022;2023-04-03T00:29:45;103046.00;;;0.80
58929;BMP180;44713;53.378;10.022;2023-04-03T00:32:11;103052.00;;;0.80
58929;BMP180;44713;53.378;10.022;2023-04-03T00:34:36;103047.00;;;0.70
58929;BMP180;44713;53.378;10.022;2023-04-03T00:37:01;103047.00;;;0.70
58929;BMP180;44713;53.378;10.022;2023-04-03T00:39:27;103054.00;;;0.60
58929;BMP180;44713;53.378;10.022;2023-04-03T00:41:52;103055.00;;;0.60
58929;BMP180;44713;53.378;10.022;2023-04-03T00:46:58;103059.00;;;0.60
58929;BMP180;44713;53.378;10.022;2023-04-03T00:49:25;103058.00;;;0.60
58929;BMP180;44713;53.378;10.022;2023-04-03T00:51:51;103062.00;;;0.60
58929;BMP180;44713;53.378;10.022;2023-04-03T00:54:17;103056.00;;;0.50
58929;BMP180;44713;53.378;10.022;2023-04-03T00:56:43;103053.00;;;0.50
58929;BMP180;44713;53.378;10.022;2023-04-03T00:59:19;103051.00;;;0.50
58929;BMP180;44713;53.378;10.022;2023-04-03T01:01:48;103055.00;;;0.50
58929;BMP180;44713;53.378;10.022;2023-04-03T01:04:34;103055.00;;;0.50
58929;BMP180;44713;53.378;10.022;2023-04-03T01:07:04;103055.00;;;0.40
58929;BMP180;44713;53.378;10.022;2023-04-03T01:09:31;103056.00;;;0.40
58929;BMP180;44713;53.378;10.022;2023-04-03T01:12:20;103054.00;;;0.30
58929;BMP180;44713;53.378;10.022;2023-04-03T01:14:50;103052.00;;;0.30
58929;BMP180;44713;53.378;10.022;2023-04-03T01:17:40;103061.00;;;0.40
58929;BMP180;44713;53.378;10.022;2023-04-03T01:23:12;103045.00;;;0.30
58929;BMP180;44713;53.378;10.022;2023-04-03T01:25:53;103055.00;;;0.30
58929;BMP180;44713;53.378;10.022;2023-04-03T01:28:29;103057.00;;;0.30
58929;BMP180;44713;53.378;10.022;2023-04-03T01:31:22;103062.00;;;0.20
58929;BMP180;44713;53.378;10.022;2023-04-03T01:33:50;103066.00;;;0.30
58929;BMP180;44713;53.378;10.022;2023-04-03T01:36:19;103056.00;;;0.30
58929;BMP180;44713;53.378;10.022;2023-04-03T01:38:46;103053.00;;;0.30
58929;BMP180;44713;53.378;10.022;2023-04-03T01:41:11;103051.00;;;0.30
58929;BMP180;44713;53.378;10.022;2023-04-03T01:43:37;103055.00;;;0.30
58929;BMP180;44713;53.378;10.022;2023-04-03T01:46:02;103064.00;;;0.20
58929;BMP180;44713;53.378;10.022;2023-04-03T01:48:27;103065.00;;;0.20
58929;BMP180;44713;53.378;10.022;2023-04-03T01:50:53;103075.00;;;0.20
58929;BMP180;44713;53.378;10.022;2023-04-03T01:53:20;103067.00;;;0.10
58929;BMP180;44713;53.378;10.022;2023-04-03T01:55:45;103066.00;;;0.10
58929;BMP180;44713;53.378;10.022;2023-04-03T01:58:10;103074.00;;;0.10
58929;BMP180;44713;53.378;10.022;2023-04-03T02:00:36;103064.00;;;0.10
58929;BMP180;44713;53.378;10.022;2023-04-03T02:03:02;103072.00;;;0.10
58929;BMP180;44713;53.378;10.022;2023-04-03T02:05:28;103063.00;;;0.00
58929;BMP180;44713;53.378;10.022;2023-04-03T02:07:53;103060.00;;;-0.10
58929;BMP180;44713;53.378;10.022;2023-04-03T02:10:18;103065.00;;;-0.10
58929;BMP180;44713;53.378;10.022;2023-04-03T02:12:44;103061.00;;;-0.10
58929;BMP180;44713;53.378;10.022;2023-04-03T02:15:10;103064.00;;;-0.10
58929;BMP180;44713;53.378;10.022;2023-04-03T02:17:35;103061.00;;;0.00
58929;BMP180;44713;53.378;10.022;2023-04-03T02:20:01;103071.00;;;0.00
58929;BMP180;44713;53.378;10.022;2023-04-03T02:22:28;103068.00;;;0.00
58929;BMP180;44713;53.378;10.022;2023-04-03T02:24:53;103068.00;;;0.00
58929;BMP180;44713;53.378;10.022;2023-04-03T02:27:19;103069.00;;;-0.10
58929;BMP180;44713;53.378;10.022;2023-04-03T02:29:45;103075.00;;;-0.10
58929;BMP180;44713;53.378;10.022;2023-04-03T02:32:10;103071.00;;;-0.10
58929;BMP180;44713;53.378;10.022;2023-04-03T02:34:36;103068.00;;;-0.10
58929;BMP180;44713;53.378;10.022;2023-04-03T02:37:03;103077.00;;;-0.20
58929;BMP180;44713;53.378;10.022;2023-04-03T02:39:28;103074.00;;;-0.20
58929;BMP180;44713;53.378;10.022;2023-04-03T02:41:55;103076.00;;;-0.30
58929;BMP180;44713;53.378;10.022;2023-04-03T02:44:23;103083.00;;;-0.30
58929;BMP180;44713;53.378;10.022;2023-04-03T02:46:49;103078.00;;;-0.30
58929;BMP180;44713;53.378;10.022;2023-04-03T02:49:15;103079.00;;;-0.40
58929;BMP180;44713;53.378;10.022;2023-04-03T02:51:41;103083.00;;;-0.50
58929;BMP180;44713;53.378;10.022;2023-04-03T02:54:07;103081.00;;;-0.60
58929;BMP180;44713;53.378;10.022;2023-04-03T02:56:35;103084.00;;;-0.60
58929;BMP180;44713;53.378;10.022;2023-04-03T02:59:01;103086.00;;;-0.60
58929;BMP180;44713;53.378;10.022;2023-04-03T03:01:27;103085.00;;;-0.60
58929;BMP180;44713;53.378;10.022;2023-04-03T03:03:57;103083.00;;;-0.50
58929;BMP180;44713;53.378;10.022;2023-04-03T03:06:23;103080.00;;;-0.50
58929;BMP180;44713;53.378;10.022;2023-04-03T03:08:48;103079.00;;;-0.50
58929;BMP180;44713;53.378;10.022;2023-04-03T03:11:13;103077.00;;;-0.40
58929;BMP180;44713;53.378;10.022;2023-04-03T03:13:39;103085.00;;;-0.50
58929;BMP180;44713;53.378;10.022;2023-04-03T03:16:05;103086.00;;;-0.50
58929;BMP180;44713;53.378;10.022;2023-04-03T03:18:31;103080.00;;;-0.50
58929;BMP180;44713;53.378;10.022;2023-04-03T03:20:58;103081.00;;;-0.50
58929;BMP180;44713;53.378;10.022;2023-04-03T03:23:26;103081.00;;;-0.50
58929;BMP180;44713;53.378;10.022;2023-04-03T03:25:56;103079.00;;;-0.60
58929;BMP180;44713;53.378;10.022;2023-04-03T03:28:22;103076.00;;;-0.60
58929;BMP180;44713;53.378;10.022;2023-04-03T03:30:48;103083.00;;;-0.60
58929;BMP180;44713;53.378;10.022;2023-04-03T03:33:13;103087.00;;;-0.60
58929;BMP180;44713;53.378;10.022;2023-04-03T03:35:39;103090.00;;;-0.50
58929;BMP180;44713;53.378;10.022;2023-04-03T03:38:05;103087.00;;;-0.60
58929;BMP180;44713;53.378;10.022;2023-04-03T03:40:31;103084.00;;;-0.70
58929;BMP180;44713;53.378;10.022;2023-04-03T03:42:57;103088.00;;;-0.70
58929;BMP180;44713;53.378;10.022;2023-04-03T03:45:22;103082.00;;;-0.80
58929;BMP180;44713;53.378;10.022;2023-04-03T03:47:48;103081.00;;;-0.70
58929;BMP180;44713;53.378;10.022;2023-04-03T03:50:14;103083.00;;;-0.80
58929;BMP180;44713;53.378;10.022;2023-04-03T03:52:39;103094.00;;;-0.80
58929;BMP180;44713;53.378;10.022;2023-04-03T03:55:05;103086.00;;;-0.80
58929;BMP180;44713;53.378;10.022;2023-04-03T03:57:33;103082.00;;;-0.80
58929;BMP180;44713;53.378;10.022;2023-04-03T03:59:58;103099.00;;;-0.80
58929;BMP180;44713;53.378;10.022;2023-04-03T04:02:24;103095.00;;;-0.90
58929;BMP180;44713;53.378;10.022;2023-04-03T04:04:52;103082.00;;;-0.90
58929;BMP180;44713;53.378;10.022;2023-04-03T04:07:17;103088.00;;;-0.90
58929;BMP180;44713;53.378;10.022;2023-04-03T04:09:43;103085.00;;;-0.90
58929;BMP180;44713;53.378;10.022;2023-04-03T04:12:08;103085.00;;;-0.80
58929;BMP180;44713;53.378;10.022;2023-04-03T04:14:35;103086.00;;;-0.90
58929;BMP180;44713;53.378;10.022;2023-04-03T04:17:00;103084.00;;;-0.90
58929;BMP180;44713;53.378;10.022;2023-04-03T04:19:28;103083.00;;;-0.90
58929;BMP180;44713;53.378;10.022;2023-04-03T04:21:53;103087.00;;;-0.80
58929;BMP180;44713;53.378;10.022;2023-04-03T04:24:19;103091.00;;;-0.90
58929;BMP180;44713;53.378;10.022;2023-04-03T04:26:46;103095.00;;;-0.90
58929;BMP180;44713;53.378;10.022;2023-04-03T04:29:14;103096.00;;;-1.00
58929;BMP180;44713;53.378;10.022;2023-04-03T04:31:39;103097.00;;;-1.00
58929;BMP180;44713;53.378;10.022;2023-04-03T04:34:06;103099.00;;;-1.00
58929;BMP180;44713;53.378;10.022;2023-04-03T04:36:32;103097.00;;;-1.00
58929;BMP180;44713;53.378;10.022;2023-04-03T04:38:57;103096.00;;;-0.90
58929;BMP180;44713;53.378;10.022;2023-04-03T04:41:25;103103.00;;;-1.00
58929;BMP180;44713;53.378;10.022;2023-04-03T04:43:52;103101.00;;;-1.00
58929;BMP180;44713;53.378;10.022;2023-04-03T04:46:18;103117.00;;;-1.00
58929;BMP180;44713;53.378;10.022;2023-04-03T04:48:48;103114.00;;;-1.00
58929;BMP180;44713;53.378;10.022;2023-04-03T04:51:16;103123.00;;;-0.90
58929;BMP180;44713;53.378;10.022;2023-04-03T04:53:41;103119.00;;;-0.90
58929;BMP180;44713;53.378;10.022;2023-04-03T04:56:10;103128.00;;;-1.00
58929;BMP180;44713;53.378;10.022;2023-04-03T04:58:37;103121.00;;;-1.00
58929;BMP180;44713;53.378;10.022;2023-04-03T05:01:07;103128.00;;;-1.10
58929;BMP180;44713;53.378;10.022;2023-04-03T05:03:37;103125.00;;;-0.90
58929;BMP180;44713;53.378;10.022;2023-04-03T05:06:03;103131.00;;;-0.90
58929;BMP180;44713;53.378;10.022;2023-04-03T05:08:31;103137.00;;;-1.00
58929;BMP180;44713;53.378;10.022;2023-04-03T05:10:57;103136.00;;;-1.00
58929;BMP180;44713;53.378;10.022;2023-04-03T05:13:24;103141.00;;;-1.00
58929;BMP180;44713;53.378;10.022;2023-04-03T05:15:50;103145.00;;;-1.00
58929;BMP180;44713;53.378;10.022;2023-04-03T05:18:15;103144.00;;;-1.00
58929;BMP180;44713;53.378;10.022;2023-04-03T05:20:41;103137.00;;;-1.00
58929;BMP180;44713;53.378;10.022;2023-04-03T05:23:09;103153.00;;;-1.00
58929;BMP180;44713;53.378;10.022;2023-04-03T05:25:37;103146.00;;;-1.00
58929;BMP180;44713;53.378;10.022;2023-04-03T05:28:04;103151.00;;;-1.00
58929;BMP180;44713;53.378;10.022;2023-04-03T05:30:30;103144.00;;;-1.00
58929;BMP180;44713;53.378;10.022;2023-04-03T05:32:55;103152.00;;;-0.90
58929;BMP180;44713;53.378;10.022;2023-04-03T05:35:31;103155.00;;;-0.90
58929;BMP180;44713;53.378;10.022;2023-04-03T05:37:59;103158.00;;;-0.90
58929;BMP180;44713;53.378;10.022;2023-04-03T05:40:25;103154.00;;;-0.90
58929;BMP180;44713;53.378;10.022;2023-04-03T05:42:53;103160.00;;;-0.90
58929;BMP180;44713;53.378;10.022;2023-04-03T05:45:20;103162.00;;;-0.90
58929;BMP180;44713;53.378;10.022;2023-04-03T05:47:46;103161.00;;;-0.90
58929;BMP180;44713;53.378;10.022;2023-04-03T05:50:14;103163.00;;;-0.90
58929;BMP180;44713;53.378;10.022;2023-04-03T05:52:43;103162.00;;;-0.90
58929;BMP180;44713;53.378;10.022;2023-04-03T05:55:09;103166.00;;;-0.90
58929;BMP180;44713;53.378;10.022;2023-04-03T05:57:35;103160.00;;;-0.80
58929;BMP180;44713;53.378;10.022;2023-04-03T06:00:03;103163.00;;;-0.80
58929;BMP180;44713;53.378;10.022;2023-04-03T06:02:29;103165.00;;;-0.70
58929;BMP180;44713;53.378;10.022;2023-04-03T06:04:56;103172.00;;;-0.70
58929;BMP180;44713;53.378;10.022;2023-04-03T06:07:23;103173.00;;;-0.70
58929;BMP180;44713;53.378;10.022;2023-04-03T06:09:50;103173.00;;;-0.70
58929;BMP180;44713;53.378;10.022;2023-04-03T06:12:19;103170.00;;;-0.60
58929;BMP180;44713;53.378;10.022;2023-04-03T06:14:44;103179.00;;;-0.60
58929;BMP180;44713;53.378;10.022;2023-04-03T06:17:13;103179.00;;;-0.50
58929;BMP180;44713;53.378;10.022;2023-04-03T06:19:39;103170.00;;;-0.50
58929;BMP180;44713;53.378;10.022;2023-04-03T06:22:05;103168.00;;;-0.50
58929;BMP180;44713;53.378;10.022;2023-04-03T06:24:31;103172.00;;;-0.40
58929;BMP180;44713;53.378;10.022;2023-04-03T06:26:57;103174.00;;;-0.40
58929;BMP180;44713;53.378;10.022;2023-04-03T06:29:23;103179.00;;;-0.30
58929;BMP180;44713;53.378;10.022;2023-04-03T06:31:49;103173.00;;;-0.20
58929;BMP180;44713;53.378;10.022;2023-04-03T06:34:15;103182.00;;;-0.20
58929;BMP180;44713;53.378;10.022;2023-04-03T06:36:42;103179.00;;;-0.10
58929;BMP180;44713;53.378;10.022;2023-04-03T06:39:10;103178.00;;;0.00
58929;BMP180;44713;53.378;10.022;2023-04-03T06:41:37;103183.00;;;0.10
58929;BMP180;44713;53.378;10.022;2023-04-03T06:44:03;103181.00;;;0.20
58929;BMP180;44713;53.378;10.022;2023-04-03T06:46:28;103189.00;;;0.40
58929;BMP180;44713;53.378;10.022;2023-04-03T06:48:54;103197.00;;;0.50
58929;BMP180;44713;53.378;10.022;2023-04-03T06:51:27;103191.00;;;0.60
58929;BMP180;44713;53.378;10.022;2023-04-03T06:53:55;103184.00;;;0.80
58929;BMP180;44713;53.378;10.022;2023-04-03T06:56:21;103198.00;;;0.90
58929;BMP180;44713;53.378;10.022;2023-04-03T06:58:47;103182.00;;;1.10
58929;BMP180;44713;53.378;10.022;2023-04-03T07:01:15;103192.00;;;1.30
58929;BMP180;44713;53.378;10.022;2023-04-03T07:03:41;103202.00;;;1.40
58929;BMP180;44713;53.378;10.022;2023-04-03T07:06:09;103193.00;;;1.60
58929;BMP180;44713;53.378;10.022;2023-04-03T07:08:35;103198.00;;;1.70
58929;BMP180;44713;53.378;10.022;2023-04-03T07:11:01;103198.00;;;1.80
58929;BMP180;44713;53.378;10.022;2023-04-03T07:13:27;103206.00;;;2.00
58929;BMP180;44713;53.378;10.022;2023-04-03T07:15:52;103201.00;;;2.10
58929;BMP180;44713;53.378;10.022;2023-04-03T07:18:18;103198.00;;;2.20
58929;BMP180;44713;53.378;10.022;2023-04-03T07:20:44;103202.00;;;2.30
58929;BMP180;44713;53.378;10.022;2023-04-03T07:23:10;103200.00;;;2.30
58929;BMP180;44713;53.378;10.022;2023-04-03T07:25:36;103202.00;;;2.50
58929;BMP180;44713;53.378;10.022;2023-04-03T07:28:01;103203.00;;;2.70
58929;BMP180;44713;53.378;10.022;2023-04-03T07:30:27;103200.00;;;2.70
58929;BMP180;44713;53.378;10.022;2023-04-03T07:32:52;103199.00;;;2.90
58929;BMP180;44713;53.378;10.022;2023-04-03T07:35:17;103203.00;;;3.10
58929;BMP180;44713;53.378;10.022;2023-04-03T07:37:43;103212.00;;;3.10
58929;BMP180;44713;53.378;10.022;2023-04-03T07:40:09;103205.00;;;3.20
58929;BMP180;44713;53.378;10.022;2023-04-03T07:42:35;103209.00;;;3.30
58929;BMP180;44713;53.378;10.022;2023-04-03T07:45:02;103194.00;;;3.40
58929;BMP180;44713;53.378;10.022;2023-04-03T07:47:28;103204.00;;;3.60
58929;BMP180;44713;53.378;10.022;2023-04-03T07:49:53;103201.00;;;3.60
58929;BMP180;44713;53.378;10.022;2023-04-03T07:52:19;103204.00;;;3.80
58929;BMP180;44713;53.378;10.022;2023-04-03T07:54:44;103198.00;;;3.90
58929;BMP180;44713;53.378;10.022;2023-04-03T07:57:10;103197.00;;;3.90
58929;BMP180;44713;53.378;10.022;2023-04-03T07:59:35;103194.00;;;4.00
58929;BMP180;44713;53.378;10.022;2023-04-03T08:02:01;103198.00;;;4.10
58929;BMP180;44713;53.378;10.022;2023-04-03T08:04:26;103196.00;;;4.20
58929;BMP180;44713;53.378;10.022;2023-04-03T08:06:52;103195.00;;;4.20
58929;BMP180;44713;53.378;10.022;2023-04-03T08:09:18;103189.00;;;4.30
58929;BMP180;44713;53.378;10.022;2023-04-03T08:11:44;103197.00;;;4.30
58929;BMP180;44713;53.378;10.022;2023-04-03T08:14:11;103192.00;;;4.40
58929;BMP180;44713;53.378;10.022;2023-04-03T08:16:43;103195.00;;;4.60
58929;BMP180;44713;53.378;10.022;2023-04-03T08:19:08;103191.00;;;4.80
58929;BMP180;44713;53.378;10.022;2023-04-03T08:21:34;103191.00;;;4.80
58929;BMP180;44713;53.378;10.022;2023-04-03T08:23:59;103186.00;;;4.90
58929;BMP180;44713;53.378;10.022;2023-04-03T08:26:25;103187.00;;;5.00
58929;BMP180;44713;53.378;10.022;2023-04-03T08:28:52;103187.00;;;5.10
58929;BMP180;44713;53.378;10.022;2023-04-03T08:31:19;103186.00;;;5.10
58929;BMP180;44713;53.378;10.022;2023-04-03T08:33:45;103183.00;;;5.20
58929;BMP180;44713;53.378;10.022;2023-04-03T08:36:28;103178.00;;;5.40
58929;BMP180;44713;53.378;10.022;2023-04-03T08:38:55;103174.00;;;5.50
58929;BMP180;44713;53.378;10.022;2023-04-03T08:41:29;103189.00;;;5.50
58929;BMP180;44713;53.378;10.022;2023-04-03T08:44:36;103173.00;;;5.60
58929;BMP180;44713;53.378;10.022;2023-04-03T08:52:34;103172.00;;;5.80
58929;BMP180;44713;53.378;10.022;2023-04-03T08:55:03;103173.00;;;6.00
58929;BMP180;44713;53.378;10.022;2023-04-03T08:57:30;103169.00;;;6.10
58929;BMP180;44713;53.378;10.022;2023-04-03T08:59:59;103178.00;;;6.30
58929;BMP180;44713;53.378;10.022;2023-04-03T09:02:32;103167.00;;;6.40
58929;BMP180;44713;53.378;10.022;2023-04-03T09:04:59;103162.00;;;6.40
58929;BMP180;44713;53.378;10.022;2023-04-03T09:07:36;103168.00;;;6.40
58929;BMP180;44713;53.378;10.022;2023-04-03T09:10:05;103155.00;;;6.70
58929;BMP180;44713;53.378;10.022;2023-04-03T09:12:37;103163.00;;;6.80
58929;BMP180;44713;53.378;10.022;2023-04-03T09:15:23;103158.00;;;6.90
58929;BMP180;44713;53.378;10.022;2023-04-03T09:18:06;103158.00;;;7.10
58929;BMP180;44713;53.378;10.022;2023-04-03T09:20:54;103155.00;;;7.30
58929;BMP180;44713;53.378;10.022;2023-04-03T09:23:39;103152.00;;;7.50
58929;BMP180;44713;53.378;10.022;2023-04-03T09:26:16;103148.00;;;7.60
58929;BMP180;44713;53.378;10.022;2023-04-03T09:28:43;103152.00;;;7.80
58929;BMP180;44713;53.378;10.022;2023-04-03T09:31:21;103141.00;;;7.70
58929;BMP180;44713;53.378;10.022;2023-04-03T09:33:53;103156.00;;;8.00
58929;BMP180;44713;53.378;10.022;2023-04-03T09:36:40;103146.00;;;7.90
58929;BMP180;44713;53.378;10.022;2023-04-03T09:39:11;103160.00;;;8.10
58929;BMP180;44713;53.378;10.022;2023-04-03T09:41:37;103142.00;;;8.00
58929;BMP180;44713;53.378;10.022;2023-04-03T09:44:04;103145.00;;;8.10
58929;BMP180;44713;53.378;10.022;2023-04-03T09:46:42;103142.00;;;8.00
58929;BMP180;44713;53.378;10.022;2023-04-03T09:49:10;103137.00;;;8.30
58929;BMP180;44713;53.378;10.022;2023-04-03T09:51:37;103144.00;;;8.40
58929;BMP180;44713;53.378;10.022;2023-04-03T09:54:32;103134.00;;;8.80
58929;BMP180;44713;53.378;10.022;2023-04-03T09:57:07;103134.00;;;9.00
58929;BMP180;44713;53.378;10.022;2023-04-03T09:59:33;103135.00;;;9.30
58929;BMP180;44713;53.378;10.022;2023-04-03T10:04:41;103121.00;;;9.20
58929;BMP180;44713;53.378;10.022;2023-04-03T10:07:30;103120.00;;;9.40
58929;BMP180;44713;53.378;10.022;2023-04-03T10:10:03;103123.00;;;9.30
58929;BMP180;44713;53.378;10.022;2023-04-03T10:12:40;103131.00;;;9.40
58929;BMP180;44713;53.378;10.022;2023-04-03T10:15:13;103116.00;;;9.40
58929;BMP180;44713;53.378;10.022;2023-04-03T10:17:57;103126.00;;;9.70
58929;BMP180;44713;53.378;10.022;2023-04-03T10:20:39;103117.00;;;9.60
58929;BMP180;44713;53.378;10.022;2023-04-03T10:26:10;103120.00;;;9.90
58929;BMP180;44713;53.378;10.022;2023-04-03T10:28:56;103112.00;;;10.20
58929;BMP180;44713;53.378;10.022;2023-04-03T10:31:39;103108.00;;;10.50
58929;BMP180;44713;53.378;10.022;2023-04-03T10:36:45;103107.00;;;10.20
58929;BMP180;44713;53.378;10.022;2023-04-03T10:44:44;103105.00;;;10.40
58929;BMP180;44713;53.378;10.022;2023-04-03T10:47:37;103102.00;;;10.20
58929;BMP180;44713;53.378;10.022;2023-04-03T10:58:48;103100.00;;;11.10
58929;BMP180;44713;53.378;10.022;2023-04-03T11:01:22;103082.00;;;10.80
58929;BMP180;44713;53.378;10.022;2023-04-03T11:03:51;103080.00;;;10.70
58929;BMP180;44713;53.378;10.022;2023-04-03T11:06:20;103077.00;;;10.80
58929;BMP180;44713;53.378;10.022;2023-04-03T11:09:05;103060.00;;;11.40
58929;BMP180;44713;53.378;10.022;2023-04-03T11:11:34;103063.00;;;11.70
58929;BMP180;44713;53.378;10.022;2023-04-03T11:14:34;103068.00;;;11.70
58929;BMP180;44713;53.378;10.022;2023-04-03T11:19:59;103063.00;;;11.80
58929;BMP180;44713;53.378;10.022;2023-04-03T11:22:32;103063.00;;;11.50
58929;BMP180;44713;53.378;10.022;2023-04-03T11:25:15;103071.00;;;11.30
58929;BMP180;44713;53.378;10.022;2023-04-03T11:28:01;103073.00;;;10.50
58929;BMP180;44713;53.378;10.022;2023-04-03T11:30:48;103067.00;;;10.20
58929;BMP180;44713;53.378;10.022;2023-04-03T11:34:16;103073.00;;;10.40
58929;BMP180;44713;53.378;10.022;2023-04-03T11:36:12;103063.00;;;10.20
58929;BMP180;44713;53.378;10.022;2023-04-03T11:38:44;103065.00;;;10.70
58929;BMP180;44713;53.378;10.022;2023-04-03T11:41:12;103063.00;;;10.50
58929;BMP180;44713;53.378;10.022;2023-04-03T11:43:56;103056.00;;;10.80
58929;BMP180;44713;53.378;10.022;2023-04-03T11:46:22;103054.00;;;10.80
58929;BMP180;44713;53.378;10.022;2023-04-03T11:48:49;103065.00;;;11.10
58929;BMP180;44713;53.378;10.022;2023-04-03T11:53:46;103056.00;;;10.90
58929;BMP180;44713;53.378;10.022;2023-04-03T12:01:44;103042.00;;;11.60
58929;BMP180;44713;53.378;10.022;2023-04-03T12:04:11;103037.00;;;12.00
58929;BMP180;44713;53.378;10.022;2023-04-03T12:09:23;103033.00;;;10.90
58929;BMP180;44713;53.378;10.022;2023-04-03T12:11:49;103037.00;;;10.50
58929;BMP180;44713;53.378;10.022;2023-04-03T12:14:16;103037.00;;;10.40
58929;BMP180;44713;53.378;10.022;2023-04-03T12:16:46;103038.00;;;10.60
58929;BMP180;44713;53.378;10.022;2023-04-03T12:26:51;103031.00;;;10.50
58929;BMP180;44713;53.378;10.022;2023-04-03T12:29:37;103017.00;;;10.50
58929;BMP180;44713;53.378;10.022;2023-04-03T12:38:14;103016.00;;;12.10
58929;BMP180;44713;53.378;10.022;2023-04-03T12:43:56;103021.00;;;12.00
58929;BMP180;44713;53.378;10.022;2023-04-03T12:46:32;103013.00;;;11.20
58929;BMP180;44713;53.378;10.022;2023-04-03T12:48:59;103008.00;;;11.50
58929;BMP180;44713;53.378;10.022;2023-04-03T12:51:39;103003.00;;;12.20
58929;BMP180;44713;53.378;10.022;2023-04-03T12:57:17;103000.00;;;12.60
58929;BMP180;44713;53.378;10.022;2023-04-03T12:59:43;103001.00;;;12.20
58929;BMP180;44713;53.378;10.022;2023-04-03T13:02:22;103008.00;;;12.10
58929;BMP180;44713;53.378;10.022;2023-04-03T13:04:51;103008.00;;;11.80
58929;BMP180;44713;53.378;10.022;2023-04-03T13:07:31;103015.00;;;11.20
58929;BMP180;44713;53.378;10.022;2023-04-03T13:10:01;103013.00;;;11.20
58929;BMP180;44713;53.378;10.022;2023-04-03T13:12:27;103009.00;;;10.90
58929;BMP180;44713;53.378;10.022;2023-04-03T13:14:58;103011.00;;;10.70
58929;BMP180;44713;53.378;10.022;2023-04-03T13:17:25;103013.00;;;10.50
58929;BMP180;44713;53.378;10.022;2023-04-03T13:19:51;103002.00;;;10.50
58929;BMP180;44713;53.378;10.022;2023-04-03T13:22:30;103000.00;;;11.10
58929;BMP180;44713;53.378;10.022;2023-04-03T13:24:59;102990.00;;;11.40
58929;BMP180;44713;53.378;10.022;2023-04-03T13:27:26;102978.00;;;11.80
58929;BMP180;44713;53.378;10.022;2023-04-03T13:29:54;102983.00;;;12.00
58929;BMP180;44713;53.378;10.022;2023-04-03T13:32:23;102980.00;;;12.10
58929;BMP180;44713;53.378;10.022;2023-04-03T13:34:50;102991.00;;;12.40
58929;BMP180;44713;53.378;10.022;2023-04-03T13:37:31;102991.00;;;11.80
58929;BMP180;44713;53.378;10.022;2023-04-03T13:40:11;102990.00;;;11.10
58929;BMP180;44713;53.378;10.022;2023-04-03T13:42:40;102983.00;;;11.70
58929;BMP180;44713;53.378;10.022;2023-04-03T13:45:22;102984.00;;;12.20
58929;BMP180;44713;53.378;10.022;2023-04-03T13:47:50;102974.00;;;12.60
58929;BMP180;44713;53.378;10.022;2023-04-03T13:50:24;102973.00;;;12.90
58929;BMP180;44713;53.378;10.022;2023-04-03T13:52:54;102970.00;;;13.00
58929;BMP180;44713;53.378;10.022;2023-04-03T13:55:29;102964.00;;;13.30
58929;BMP180;44713;53.378;10.022;2023-04-03T13:58:16;102973.00;;;12.80
58929;BMP180;44713;53.378;10.022;2023-04-03T14:00:49;102982.00;;;12.70
58929;BMP180;44713;53.378;10.022;2023-04-03T14:05:50;102973.00;;;11.60
58929;BMP180;44713;53.378;10.022;2023-04-03T14:08:17;102971.00;;;11.30
58929;BMP180;44713;53.378;10.022;2023-04-03T14:10:43;102965.00;;;11.60
58929;BMP180;44713;53.378;10.022;2023-04-03T14:13:12;102976.00;;;11.70
58929;BMP180;44713;53.378;10.022;2023-04-03T14:15:38;102964.00;;;11.80
58929;BMP180;44713;53.378;10.022;2023-04-03T14:18:03;102961.00;;;12.10
58929;BMP180;44713;53.378;10.022;2023-04-03T14:20:29;102954.00;;;12.10
58929;BMP180;44713;53.378;10.022;2023-04-03T14:22:55;102941.00;;;12.30
58929;BMP180;44713;53.378;10.022;2023-04-03T14:25:21;102963.00;;;12.00
58929;BMP180;44713;53.378;10.022;2023-04-03T14:27:52;102960.00;;;11.30
58929;BMP180;44713;53.378;10.022;2023-04-03T14:30:25;102970.00;;;11.00
58929;BMP180;44713;53.378;10.022;2023-04-03T14:32:52;102967.00;;;10.90
58929;BMP180;44713;53.378;10.022;2023-04-03T14:35:18;102960.00;;;11.30
58929;BMP180;44713;53.378;10.022;2023-04-03T14:37:44;102953.00;;;11.90
58929;BMP180;44713;53.378;10.022;2023-04-03T14:40:14;102946.00;;;12.10
58929;BMP180;44713;53.378;10.022;2023-04-03T14:42:40;102938.00;;;12.20
58929;BMP180;44713;53.378;10.022;2023-04-03T14:45:09;102953.00;;;12.40
58929;BMP180;44713;53.378;10.022;2023-04-03T14:47:39;102956.00;;;12.00
58929;BMP180;44713;53.378;10.022;2023-04-03T14:50:07;102960.00;;;11.50
58929;BMP180;44713;53.378;10.022;2023-04-03T14:52:35;102959.00;;;11.30
58929;BMP180;44713;53.378;10.022;2023-04-03T14:55:02;102957.00;;;11.10
58929;BMP180;44713;53.378;10.022;2023-04-03T14:57:29;102959.00;;;10.80
58929;BMP180;44713;53.378;10.022;2023-04-03T14:59:55;102955.00;;;10.70
58929;BMP180;44713;53.378;10.022;2023-04-03T15:02:38;102947.00;;;10.80
58929;BMP180;44713;53.378;10.022;2023-04-03T15:05:06;102953.00;;;11.10
58929;BMP180;44713;53.378;10.022;2023-04-03T15:07:35;102945.00;;;11.30
58929;BMP180;44713;53.378;10.022;2023-04-03T15:10:22;102945.00;;;11.60